Belton, South Carolina
Current Conditions -  °F | °C
As of 3:56 AM on Monday 24 Nov 2014 (Local Time) from KAND Reporting Station
Overcast Overcast  
Wind Chill: 58°   Ceiling: 2200
Heat Index: 58°   Visibility: 10mi
Dew Point: 57°   Wind: 7mph
Humidity: 97%   Direction: 220°SW
Pressure: 29.77"   Gusts: NA
Location:  34.52°N, 82.49°W
Report Text: KAND 240856Z AUTO 22006KT 10SM BKN022 OVC029 14/14 A2977 RMK AO2 SLP080 T01440139 51006
Loading
Personal Weather Stations






























Interactive Weather Map New forecast layout! Learn more

10-Day Weather Forecast

Advertisements
Track Severe Weather on mobile